Time;durP1;ratioP1;P1;durP2;ratioP2;P2;SDS_P1;SDS_P2;PMS_P1;PMS_P2;Temp;Humidity;BMP_temperature;BMP_pressure;BME280_temperature;BME280_humidity;BME280_pressure;Samples;Min_cycle;Max_cycle;Signal;HPM_P1;HPM_P2
2022/01/06 00:00:16;;;;;;;24.27;4.23;;;3.20;99.90;;;;;;5087282;28;20542;-59
2022/01/06 00:02:43;;;;;;;24.63;4.80;;;3.20;1.00;;;;;;5062399;28;20256;-60
2022/01/06 00:05:13;;;;;;;22.80;5.83;;;3.20;1.00;;;;;;5084894;28;20245;-59
2022/01/06 00:07:40;;;;;;;23.00;4.93;;;3.10;1.00;;;;;;5064936;28;20186;-59
2022/01/06 00:10:12;;;;;;;23.57;4.67;;;3.10;1.00;;;;;;5059062;28;21354;-59
2022/01/06 00:12:49;;;;;;;24.93;4.83;;;3.10;1.00;;;;;;5080197;28;20726;-59
2022/01/06 00:15:30;;;;;;;26.90;5.23;;;3.10;1.00;;;;;;5087373;28;20256;-59
2022/01/06 00:25:45;;;;;;;19.03;4.93;;;3.10;1.00;;;;;;5084989;28;20275;-59
2022/01/06 00:28:13;;;;;;;20.80;4.50;;;3.00;1.00;;;;;;5081930;28;21187;-59
2022/01/06 00:30:40;;;;;;;22.20;5.37;;;3.10;1.00;;;;;;5087057;28;20222;-59
2022/01/06 00:33:08;;;;;;;12.37;3.80;;;3.00;1.00;;;;;;5083906;28;20307;-59
2022/01/06 00:35:35;;;;;;;20.57;5.00;;;2.90;1.00;;;;;;5082654;28;20214;-59
2022/01/06 00:38:02;;;;;;;22.77;5.00;;;2.90;1.00;;;;;;5061572;28;20194;-59
2022/01/06 00:40:29;;;;;;;21.07;4.10;;;3.00;1.00;;;;;;5080565;28;20716;-59
2022/01/06 00:42:56;;;;;;;25.57;4.70;;;3.00;1.00;;;;;;5064837;28;20186;-59
2022/01/06 00:45:23;;;;;;;26.20;4.87;;;2.80;1.00;;;;;;5063929;28;20206;-59
2022/01/06 00:47:50;;;;;;;29.63;4.77;;;2.80;1.00;;;;;;5084159;28;20301;-59
2022/01/06 00:50:17;;;;;;;17.47;3.73;;;2.80;1.00;;;;;;5080134;28;20201;-59
2022/01/06 00:52:45;;;;;;;20.87;4.27;;;2.80;1.00;;;;;;5062844;28;22133;-59
2022/01/06 00:55:12;;;;;;;26.23;4.40;;;2.80;1.00;;;;;;5065973;28;20673;-59
2022/01/06 00:57:39;;;;;;;25.43;5.23;;;2.70;1.00;;;;;;5078884;28;20191;-59
2022/01/06 01:00:07;;;;;;;21.87;4.53;;;2.70;1.00;;;;;;5080317;28;20205;-59
2022/01/06 01:02:37;;;;;;;27.87;5.10;;;2.70;1.00;;;;;;5079560;28;20198;-59
2022/01/06 01:05:05;;;;;;;33.27;5.20;;;2.70;1.00;;;;;;5066998;28;20294;-59
2022/01/06 01:07:34;;;;;;;33.43;5.47;;;2.80;1.00;;;;;;5062245;28;20650;-59
2022/01/06 01:10:02;;;;;;;24.57;4.57;;;2.90;1.00;;;;;;5087213;28;20596;-60
2022/01/06 01:12:31;;;;;;;24.40;4.67;;;3.00;1.00;;;;;;5084414;28;20653;-59
2022/01/06 01:15:05;;;;;;;29.47;5.00;;;3.10;1.00;;;;;;5068954;28;20271;-59
2022/01/06 01:17:34;;;;;;;18.03;4.37;;;3.20;99.90;;;;;;5067602;28;20190;-59
2022/01/06 01:20:04;;;;;;;21.73;3.97;;;3.20;99.90;;;;;;5076885;28;20222;-59
2022/01/06 01:22:31;;;;;;;20.33;3.57;;;3.20;99.90;;;;;;5083799;28;20293;-59
2022/01/06 01:24:58;;;;;;;18.40;3.67;;;3.20;99.90;;;;;;5080205;28;20202;-59
2022/01/06 01:27:27;;;;;;;24.87;4.23;;;3.30;99.90;;;;;;5084176;28;20199;-59
2022/01/06 01:30:01;;;;;;;21.57;4.27;;;3.20;99.90;;;;;;5087849;28;20194;-60
2022/01/06 01:32:33;;;;;;;22.07;4.13;;;3.20;99.90;;;;;;5074201;28;20259;-58
2022/01/06 01:35:02;;;;;;;19.67;3.97;;;3.30;99.90;;;;;;5074581;28;20193;-59
2022/01/06 01:37:31;;;;;;;22.30;3.53;;;3.40;99.90;;;;;;5085879;28;20204;-59
2022/01/06 01:39:58;;;;;;;22.07;3.50;;;3.40;1.00;;;;;;5064549;28;20206;-58
2022/01/06 01:42:26;;;;;;;28.83;4.40;;;3.40;10.70;;;;;;5082529;28;20271;-59
2022/01/06 01:44:54;;;;;;;26.03;4.37;;;3.30;27.70;;;;;;5086787;28;20223;-59
2022/01/06 01:47:32;;;;;;;24.23;4.30;;;3.40;1.00;;;;;;5087700;28;20597;-59
2022/01/06 01:52:40;;;;;;;19.70;4.10;;;3.20;12.20;;;;;;5089106;28;20563;-59
2022/01/06 01:55:12;;;;;;;18.00;3.70;;;3.00;99.90;;;;;;5068377;28;20222;-59
2022/01/06 01:57:39;;;;;;;22.67;3.73;;;3.00;99.90;;;;;;5086370;28;20817;-60
2022/01/06 02:00:09;;;;;;;22.13;4.17;;;3.00;99.90;;;;;;5066398;28;20284;-59
2022/01/06 02:02:41;;;;;;;22.17;3.40;;;2.90;99.90;;;;;;5082306;28;20190;-59
2022/01/06 02:05:09;;;;;;;18.60;3.93;;;2.90;99.90;;;;;;5066809;28;20297;-60
2022/01/06 02:07:41;;;;;;;21.63;3.50;;;2.80;99.90;;;;;;5068527;28;20688;-59
2022/01/06 02:10:12;;;;;;;25.83;5.10;;;2.80;99.90;;;;;;5085866;28;20614;-60
2022/01/06 02:12:41;;;;;;;21.23;3.10;;;2.80;99.90;;;;;;5086240;28;20210;-58
2022/01/06 02:15:11;;;;;;;18.47;3.20;;;2.70;99.90;;;;;;5086974;28;20243;-59
2022/01/06 02:17:39;;;;;;;17.43;3.93;;;2.60;99.90;;;;;;5083654;28;20190;-59
2022/01/06 02:20:09;;;;;;;23.70;4.30;;;2.50;1.00;;;;;;5084787;28;20850;-59
2022/01/06 02:22:37;;;;;;;26.70;3.60;;;2.50;1.00;;;;;;5090180;28;20734;-59
2022/01/06 02:25:16;;;;;;;24.47;4.30;;;2.40;1.00;;;;;;5056917;28;20214;-60
2022/01/06 02:27:46;;;;;;;20.97;3.70;;;2.40;1.00;;;;;;5066355;28;20239;-59
2022/01/06 02:30:14;;;;;;;24.30;3.90;;;2.30;1.00;;;;;;5089529;28;20225;-59
2022/01/06 02:32:41;;;;;;;24.40;3.97;;;2.30;18.00;;;;;;5088954;28;20623;-59
2022/01/06 02:35:13;;;;;;;17.60;3.00;;;2.20;53.60;;;;;;5081049;28;20217;-59
2022/01/06 02:37:41;;;;;;;31.87;4.17;;;2.20;99.90;;;;;;5069756;28;20194;-59
2022/01/06 02:40:14;;;;;;;21.33;3.97;;;2.10;99.90;;;;;;5070382;28;21791;-59
2022/01/06 02:42:44;;;;;;;18.43;3.27;;;2.10;99.90;;;;;;5069761;28;20198;-59
2022/01/06 02:45:11;;;;;;;14.47;3.27;;;2.10;1.00;;;;;;5080752;28;20790;-59
2022/01/06 02:47:44;;;;;;;22.13;4.43;;;2.20;1.00;;;;;;5083070;28;20222;-58
2022/01/06 02:50:13;;;;;;;20.07;4.13;;;2.20;1.00;;;;;;5080623;28;20725;-59
2022/01/06 02:52:40;;;;;;;23.17;3.73;;;2.20;1.00;;;;;;5083386;28;20210;-59
2022/01/06 02:55:09;;;;;;;25.43;4.43;;;2.10;99.90;;;;;;5066599;28;20243;-59
2022/01/06 02:57:39;;;;;;;21.17;4.57;;;2.10;1.00;;;;;;5082367;28;20218;-59
2022/01/06 03:00:12;;;;;;;22.57;3.87;;;2.10;99.90;;;;;;5081115;28;20865;-59
2022/01/06 03:02:41;;;;;;;21.40;4.00;;;2.00;1.00;;;;;;5056707;28;20329;-59
2022/01/06 03:05:12;;;;;;;16.23;4.10;;;2.00;1.00;;;;;;5062587;28;20213;-59
2022/01/06 03:07:40;;;;;;;27.83;4.57;;;2.00;1.00;;;;;;5069825;28;20748;-59
2022/01/06 03:10:10;;;;;;;14.53;3.50;;;2.10;1.00;;;;;;5079516;28;20643;-59
2022/01/06 03:12:40;;;;;;;12.73;3.97;;;2.20;33.50;;;;;;5041554;28;20242;-58
2022/01/06 03:15:12;;;;;;;14.97;3.07;;;2.50;1.00;;;;;;5080525;28;20189;-58
2022/01/06 03:17:41;;;;;;;17.73;3.87;;;2.60;99.90;;;;;;5081253;28;20557;-59
2022/01/06 03:20:14;;;;;;;16.37;3.70;;;2.50;1.00;;;;;;5080512;28;20234;-60
2022/01/06 03:22:41;;;;;;;24.27;3.90;;;2.40;1.00;;;;;;5060263;28;20251;-58
2022/01/06 03:25:11;;;;;;;20.13;3.47;;;2.40;23.60;;;;;;5080682;28;20233;-59
2022/01/06 03:27:39;;;;;;;23.43;4.17;;;2.50;99.90;;;;;;5065567;28;20222;-59
2022/01/06 03:30:09;;;;;;;17.43;3.37;;;2.60;76.30;;;;;;5080465;28;20244;-59
2022/01/06 03:32:36;;;;;;;20.70;3.60;;;2.60;79.20;;;;;;5082768;28;20241;-59
2022/01/06 03:35:05;;;;;;;27.63;4.13;;;2.70;4.40;;;;;;5060557;28;20190;-59
2022/01/06 03:37:32;;;;;;;17.37;3.57;;;2.70;1.00;;;;;;5081300;28;20194;-59
2022/01/06 03:40:04;;;;;;;17.77;3.63;;;2.70;1.00;;;;;;5081393;28;20693;-59
2022/01/06 03:42:35;;;;;;;19.07;3.10;;;2.70;1.00;;;;;;5073297;28;20190;-58
2022/01/06 03:45:05;;;;;;;20.13;3.17;;;2.80;1.00;;;;;;5082217;28;20252;-57
2022/01/06 03:47:37;;;;;;;16.90;3.17;;;2.80;1.00;;;;;;5066527;28;20182;-57
2022/01/06 03:50:08;;;;;;;12.80;2.90;;;2.80;1.00;;;;;;5078284;28;20210;-57
2022/01/06 03:52:35;;;;;;;23.40;3.60;;;2.70;1.00;;;;;;5081150;28;20193;-58
2022/01/06 03:55:05;;;;;;;14.57;3.00;;;2.60;1.00;;;;;;5082532;28;20198;-59
2022/01/06 03:57:34;;;;;;;16.37;3.47;;;2.40;1.00;;;;;;5060492;28;20239;-58
2022/01/06 04:00:04;;;;;;;11.40;2.93;;;2.30;1.00;;;;;;5081688;28;20191;-59
2022/01/06 04:02:38;;;;;;;19.33;3.33;;;2.10;1.00;;;;;;5065080;28;20198;-59
2022/01/06 04:05:07;;;;;;;15.90;3.30;;;2.00;1.00;;;;;;5089769;28;20224;-59
2022/01/06 04:07:34;;;;;;;19.87;3.93;;;1.80;1.00;;;;;;5070384;28;20230;-59
2022/01/06 04:10:01;;;;;;;19.13;5.37;;;1.80;99.90;;;;;;5088637;28;20226;-59
2022/01/06 04:12:28;;;;;;;20.67;4.67;;;1.90;1.00;;;;;;5069989;28;20206;-59
2022/01/06 04:14:56;;;;;;;23.30;4.53;;;2.00;1.00;;;;;;5071237;28;20222;-59
2022/01/06 04:17:25;;;;;;;20.83;4.20;;;2.00;1.00;;;;;;5052092;28;20229;-59
2022/01/06 04:19:52;;;;;;;20.27;4.10;;;2.00;1.00;;;;;;5084830;28;20597;-58
2022/01/06 04:22:22;;;;;;;19.97;4.63;;;2.10;1.00;;;;;;5082618;28;20219;-58
2022/01/06 04:24:49;;;;;;;27.53;4.47;;;2.10;1.00;;;;;;5066243;28;20690;-58
2022/01/06 04:27:16;;;;;;;18.30;4.13;;;2.10;1.00;;;;;;5086508;28;20206;-58
2022/01/06 04:29:42;;;;;;;24.37;4.27;;;2.20;1.00;;;;;;5086097;28;20247;-59
2022/01/06 04:32:09;;;;;;;21.40;4.77;;;2.30;1.00;;;;;;5089650;28;20198;-59
2022/01/06 04:34:36;;;;;;;19.67;4.13;;;2.40;1.00;;;;;;5087724;28;20204;-59
2022/01/06 04:37:04;;;;;;;21.73;3.93;;;2.40;1.00;;;;;;5088927;28;20767;-59
2022/01/06 04:39:31;;;;;;;24.17;4.47;;;2.30;99.90;;;;;;5070512;28;20194;-59
2022/01/06 04:41:58;;;;;;;24.70;4.57;;;2.30;99.90;;;;;;5086573;28;20190;-59
2022/01/06 04:44:25;;;;;;;25.37;5.27;;;2.10;99.90;;;;;;5071072;28;20259;-59
2022/01/06 04:46:52;;;;;;;34.43;5.37;;;2.10;70.10;;;;;;5071320;28;20296;-59
2022/01/06 04:49:19;;;;;;;23.37;5.23;;;2.10;99.90;;;;;;5086143;28;20872;-60
2022/01/06 04:51:48;;;;;;;20.57;5.43;;;2.10;99.90;;;;;;5084030;28;20202;-59
2022/01/06 04:54:17;;;;;;;23.23;5.87;;;2.10;99.90;;;;;;5089952;28;20747;-59
2022/01/06 04:56:44;;;;;;;24.60;6.80;;;2.10;99.90;;;;;;5069149;28;20237;-59
2022/01/06 04:59:11;;;;;;;23.87;4.23;;;2.20;1.00;;;;;;5087042;28;20937;-60
2022/01/06 05:01:38;;;;;;;24.93;5.00;;;2.30;1.00;;;;;;5067490;28;20198;-58
2022/01/06 05:04:06;;;;;;;30.43;5.37;;;2.30;99.90;;;;;;5088611;28;20601;-58
2022/01/06 05:06:33;;;;;;;18.60;5.10;;;2.30;99.90;;;;;;5088588;28;20198;-58
2022/01/06 05:09:00;;;;;;;25.03;5.40;;;2.20;99.90;;;;;;5069967;28;20568;-58
2022/01/06 05:11:27;;;;;;;19.50;3.83;;;2.20;99.90;;;;;;5069635;28;20203;-58
2022/01/06 05:13:55;;;;;;;25.03;5.33;;;2.00;72.90;;;;;;5085246;28;20637;-60
2022/01/06 05:16:22;;;;;;;24.10;4.00;;;1.80;60.30;;;;;;5067200;28;20229;-60
2022/01/06 05:18:49;;;;;;;18.50;3.90;;;1.70;99.90;;;;;;5086147;28;20194;-60
2022/01/06 05:21:16;;;;;;;19.90;4.67;;;1.60;99.90;;;;;;5067445;28;20259;-60
2022/01/06 05:23:43;;;;;;;17.07;4.40;;;1.50;99.90;;;;;;5086588;28;20198;-60
2022/01/06 05:26:10;;;;;;;20.73;4.80;;;1.30;99.90;;;;;;5050902;28;20198;-59
2022/01/06 05:28:37;;;;;;;30.50;6.97;;;1.20;1.00;;;;;;5085093;28;20229;-59
2022/01/06 05:31:04;;;;;;;21.70;5.77;;;1.20;1.00;;;;;;5065055;28;20280;-59
2022/01/06 05:33:31;;;;;;;24.03;5.40;;;1.20;99.90;;;;;;5086392;28;20261;-59
2022/01/06 05:35:58;;;;;;;19.60;4.93;;;1.20;99.90;;;;;;5085826;28;20289;-59
2022/01/06 05:38:25;;;;;;;18.87;4.37;;;1.10;99.90;;;;;;5068032;28;20280;-60
2022/01/06 05:40:52;;;;;;;21.13;4.93;;;1.10;99.90;;;;;;5086244;28;20197;-60
2022/01/06 05:43:20;;;;;;;22.70;3.83;;;1.10;99.90;;;;;;5069091;28;20233;-60
2022/01/06 05:45:51;;;;;;;17.73;4.30;;;1.00;1.00;;;;;;5085693;28;20194;-59
2022/01/06 05:48:18;;;;;;;21.07;4.50;;;1.00;1.00;;;;;;5059493;28;20197;-60
2022/01/06 05:50:48;;;;;;;24.73;4.63;;;1.00;1.00;;;;;;5085589;28;20244;-60
2022/01/06 05:53:15;;;;;;;27.50;4.63;;;0.90;1.00;;;;;;5068466;28;20285;-59
2022/01/06 05:55:43;;;;;;;24.13;4.60;;;0.90;99.40;;;;;;5069612;28;20202;-59
2022/01/06 05:58:10;;;;;;;21.57;4.13;;;0.80;99.90;;;;;;5085151;28;20222;-59
2022/01/06 06:00:37;;;;;;;20.93;3.87;;;0.90;1.00;;;;;;5084900;28;20224;-59
2022/01/06 06:03:04;;;;;;;24.63;4.40;;;0.90;1.00;;;;;;5064929;28;20194;-59
2022/01/06 06:05:33;;;;;;;20.90;4.63;;;0.90;1.00;;;;;;5086286;28;20252;-59
2022/01/06 06:08:00;;;;;;;19.30;4.07;;;0.90;1.00;;;;;;5086114;28;20194;-59
2022/01/06 06:10:27;;;;;;;23.90;4.93;;;0.80;32.70;;;;;;5061538;28;20239;-60
2022/01/06 06:12:55;;;;;;;19.70;4.97;;;0.80;1.00;;;;;;5082754;28;22083;-59
2022/01/06 06:15:22;;;;;;;31.27;5.30;;;0.70;1.00;;;;;;5083857;28;20226;-59
2022/01/06 06:17:49;;;;;;;21.60;6.20;;;0.60;1.00;;;;;;5083949;28;20186;-59
2022/01/06 06:20:16;;;;;;;29.07;11.63;;;0.60;1.00;;;;;;5066630;28;20676;-59
2022/01/06 06:22:43;;;;;;;31.40;13.97;;;0.50;1.00;;;;;;5065175;28;20269;-59
2022/01/06 06:25:10;;;;;;;26.17;10.33;;;0.60;99.90;;;;;;5084385;28;20199;-59
2022/01/06 06:27:37;;;;;;;36.37;12.60;;;0.50;99.90;;;;;;5081498;28;20317;-59
2022/01/06 06:30:05;;;;;;;35.43;9.73;;;0.60;1.00;;;;;;5064259;28;20312;-59
2022/01/06 06:32:33;;;;;;;27.83;6.37;;;0.60;1.00;;;;;;5062800;28;20240;-59
2022/01/06 06:35:04;;;;;;;20.17;5.20;;;0.50;1.00;;;;;;5066765;28;20209;-59
2022/01/06 06:37:31;;;;;;;18.47;5.10;;;0.40;1.00;;;;;;5084230;28;20194;-59
2022/01/06 06:39:59;;;;;;;24.03;4.37;;;0.50;1.00;;;;;;5081891;28;20191;-59
2022/01/06 06:42:30;;;;;;;33.13;6.57;;;0.70;1.00;;;;;;5062131;28;20202;-59
2022/01/06 06:44:58;;;;;;;29.53;4.67;;;0.90;99.90;;;;;;5064103;28;20190;-59
2022/01/06 06:47:27;;;;;;;37.50;5.70;;;0.90;1.00;;;;;;5056820;28;20218;-60
2022/01/06 06:49:56;;;;;;;27.40;4.97;;;0.90;1.00;;;;;;5037612;28;20737;-58
2022/01/06 06:52:23;;;;;;;27.03;5.83;;;1.00;1.00;;;;;;5061831;28;20251;-59
2022/01/06 06:54:54;;;;;;;26.27;5.27;;;1.10;1.00;;;;;;5080529;28;20301;-59
2022/01/06 06:57:21;;;;;;;27.90;6.27;;;1.10;1.00;;;;;;5080905;28;20194;-59
2022/01/06 06:59:48;;;;;;;27.63;5.20;;;1.10;99.90;;;;;;5078905;28;20244;-59
2022/01/06 07:02:15;;;;;;;29.97;5.90;;;1.00;1.00;;;;;;5050121;28;20222;-59
2022/01/06 07:04:42;;;;;;;31.53;5.57;;;0.80;99.90;;;;;;5082601;28;20202;-59
2022/01/06 07:07:13;;;;;;;20.60;5.10;;;0.80;99.90;;;;;;5078889;28;20199;-59
2022/01/06 07:09:40;;;;;;;29.80;5.63;;;0.80;99.90;;;;;;5061023;28;20575;-59
2022/01/06 07:12:07;;;;;;;31.60;6.07;;;0.80;99.90;;;;;;5088782;28;20198;-59
2022/01/06 07:14:34;;;;;;;30.93;5.47;;;0.80;99.90;;;;;;5089695;28;20237;-59
2022/01/06 07:17:02;;;;;;;29.87;6.20;;;0.90;1.00;;;;;;5090618;28;20197;-59
2022/01/06 07:19:29;;;;;;;24.40;5.47;;;1.00;19.50;;;;;;5071180;28;20306;-59
2022/01/06 07:21:56;;;;;;;24.60;5.73;;;1.00;5.30;;;;;;5070916;28;20256;-60
2022/01/06 07:24:23;;;;;;;29.77;5.20;;;1.00;1.00;;;;;;5078513;28;20210;-59
2022/01/06 07:26:50;;;;;;;26.93;6.30;;;0.90;1.00;;;;;;5085746;28;20584;-59
2022/01/06 07:29:17;;;;;;;28.87;6.20;;;0.90;1.00;;;;;;5069571;28;20290;-59
2022/01/06 07:31:44;;;;;;;29.57;6.27;;;1.00;1.00;;;;;;5085867;28;20194;-59
2022/01/06 07:34:14;;;;;;;29.50;5.83;;;1.10;1.00;;;;;;5088864;28;20233;-59
2022/01/06 07:36:41;;;;;;;17.90;4.67;;;1.10;99.90;;;;;;5056806;28;20682;-59
2022/01/06 07:39:08;;;;;;;33.00;6.37;;;1.00;1.00;;;;;;5054521;28;20195;-58
2022/01/06 07:41:35;;;;;;;23.37;5.40;;;1.00;1.00;;;;;;5091589;28;20190;-59
2022/01/06 07:44:07;;;;;;;27.60;4.60;;;1.00;1.00;;;;;;5090257;28;20260;-59
2022/01/06 07:46:35;;;;;;;23.93;4.93;;;1.00;1.00;;;;;;5090685;28;20282;-59
2022/01/06 07:49:04;;;;;;;26.47;5.00;;;1.00;99.90;;;;;;5087968;28;20838;-59
2022/01/06 07:51:31;;;;;;;27.67;5.80;;;0.90;99.90;;;;;;5083118;28;20244;-59
2022/01/06 07:53:59;;;;;;;21.43;5.60;;;1.00;99.90;;;;;;5066799;28;20225;-59
2022/01/06 07:56:26;;;;;;;28.70;5.60;;;1.00;90.90;;;;;;5086072;28;20195;-59
2022/01/06 07:58:54;;;;;;;27.23;6.57;;;0.90;1.00;;;;;;5089079;28;20692;-59
2022/01/06 08:01:21;;;;;;;46.57;16.23;;;0.90;1.00;;;;;;5050602;28;20259;-59
2022/01/06 08:03:49;;;;;;;22.47;5.80;;;0.80;1.00;;;;;;5088729;28;20205;-59
2022/01/06 08:06:16;;;;;;;25.40;6.00;;;0.80;1.00;;;;;;5088271;28;20205;-59
2022/01/06 08:08:44;;;;;;;25.97;6.10;;;0.80;1.00;;;;;;5086141;28;20247;-59
2022/01/06 08:11:12;;;;;;;25.47;5.17;;;0.80;1.00;;;;;;5078837;28;20248;-59
2022/01/06 08:13:40;;;;;;;31.53;6.43;;;0.80;1.00;;;;;;5078147;28;20202;-59
2022/01/06 08:16:07;;;;;;;37.57;7.03;;;0.80;1.00;;;;;;5087496;28;20290;-59
2022/01/06 08:18:34;;;;;;;34.47;8.70;;;0.90;99.90;;;;;;5086705;28;20224;-59
2022/01/06 08:21:01;;;;;;;34.17;8.03;;;0.80;1.00;;;;;;5081554;28;20626;-59
2022/01/06 08:23:28;;;;;;;41.40;9.27;;;0.90;1.00;;;;;;5086915;28;20692;-59
2022/01/06 08:25:55;;;;;;;29.73;7.23;;;0.90;40.50;;;;;;5066667;28;20202;-59
2022/01/06 08:28:23;;;;;;;28.00;5.80;;;0.90;99.90;;;;;;5084187;28;20234;-59
2022/01/06 08:30:50;;;;;;;28.37;6.90;;;1.00;99.90;;;;;;5084358;28;20202;-59
2022/01/06 08:33:17;;;;;;;25.87;6.23;;;1.10;97.00;;;;;;5064444;28;20310;-59
2022/01/06 08:35:44;;;;;;;27.53;8.67;;;1.20;13.60;;;;;;5082785;28;20210;-59
2022/01/06 08:38:15;;;;;;;32.20;7.27;;;1.30;1.00;;;;;;5068091;28;20669;-59
2022/01/06 08:40:42;;;;;;;30.83;6.83;;;1.40;1.00;;;;;;5070821;28;20212;-58
2022/01/06 08:43:09;;;;;;;30.33;7.27;;;1.50;99.90;;;;;;5087700;28;20204;-59
2022/01/06 08:45:38;;;;;;;27.93;7.17;;;1.60;1.00;;;;;;5081955;28;20247;-59
2022/01/06 08:48:05;;;;;;;35.07;6.70;;;1.60;1.00;;;;;;5085195;28;20290;-59
2022/01/06 08:50:32;;;;;;;24.67;6.70;;;1.70;99.90;;;;;;5044508;28;20779;-59
2022/01/06 08:52:59;;;;;;;31.53;7.53;;;1.80;99.90;;;;;;5069530;28;20193;-59
2022/01/06 08:55:26;;;;;;;26.80;6.03;;;1.90;1.00;;;;;;5069029;28;20281;-59
2022/01/06 08:57:54;;;;;;;23.70;6.60;;;1.90;1.00;;;;;;5081749;28;20201;-59
2022/01/06 09:00:21;;;;;;;24.13;6.83;;;2.10;99.90;;;;;;5085787;28;20194;-59
2022/01/06 09:02:48;;;;;;;28.00;6.83;;;2.20;99.90;;;;;;5065004;28;20209;-60
2022/01/06 09:05:15;;;;;;;26.23;6.20;;;2.30;79.70;;;;;;5069092;28;20202;-59
2022/01/06 09:07:42;;;;;;;22.53;6.17;;;2.40;1.00;;;;;;5065526;28;20198;-58
2022/01/06 09:10:10;;;;;;;28.30;6.60;;;2.40;1.00;;;;;;5066815;28;20202;-58
2022/01/06 09:12:37;;;;;;;27.37;6.23;;;2.50;1.00;;;;;;5063594;28;20214;-58
2022/01/06 09:15:07;;;;;;;28.60;7.00;;;2.00;99.90;;;;;;5086588;28;20333;-58
2022/01/06 09:17:36;;;;;;;30.60;7.47;;;2.90;99.90;;;;;;5085269;28;20263;-58
2022/01/06 09:20:05;;;;;;;28.53;7.93;;;3.00;1.00;;;;;;5090580;28;20194;-58
2022/01/06 09:22:38;;;;;;;27.30;6.83;;;3.20;1.00;;;;;;5090339;28;20221;-58
2022/01/06 09:25:05;;;;;;;31.63;6.27;;;3.50;1.00;;;;;;5063924;28;20282;-58
2022/01/06 09:27:32;;;;;;;31.30;9.30;;;4.40;1.00;;;;;;5086222;28;20214;-58
2022/01/06 09:29:59;;;;;;;24.57;5.37;;;7.10;99.90;;;;;;5066401;28;20688;-58
2022/01/06 09:32:26;;;;;;;15.00;4.90;;;9.00;1.00;;;;;;5086863;28;20319;-56
2022/01/06 09:34:54;;;;;;;14.33;5.70;;;11.30;1.00;;;;;;5070862;28;20642;-57
2022/01/06 09:37:21;;;;;;;16.33;6.70;;;11.80;99.90;;;;;;5071661;28;20217;-56
2022/01/06 09:39:50;;;;;;;13.87;6.50;;;12.60;99.90;;;;;;5069692;28;20613;-58
2022/01/06 09:42:18;;;;;;;19.57;5.00;;;13.60;99.90;;;;;;5090030;28;20202;-59
2022/01/06 09:44:49;;;;;;;22.27;6.00;;;14.50;99.90;;;;;;5090579;28;20194;-59
2022/01/06 09:47:18;;;;;;;16.50;5.40;;;15.10;99.90;;;;;;5064992;28;20202;-59
2022/01/06 09:50:06;;;;;;;14.70;5.00;;;16.10;99.90;;;;;;5088736;28;20198;-58
2022/01/06 09:52:34;;;;;;;16.77;5.90;;;14.60;99.90;;;;;;5070268;28;20202;-59
2022/01/06 09:55:03;;;;;;;16.53;5.27;;;14.50;99.90;;;;;;5083124;28;20210;-59
2022/01/06 09:57:32;;;;;;;16.57;5.63;;;15.00;99.90;;;;;;5084125;28;20661;-59
2022/01/06 10:00:00;;;;;;;15.50;4.38;;;16.30;99.90;;;;;;5081759;28;20218;-59
2022/01/06 10:02:38;;;;;;;14.30;4.47;;;16.20;99.90;;;;;;5068634;28;20676;-59
2022/01/06 10:05:06;;;;;;;14.18;4.70;;;16.00;99.90;;;;;;5061991;28;20251;-59
2022/01/06 10:07:40;;;;;;;14.55;5.03;;;16.60;99.90;;;;;;5080712;28;20186;-59
2022/01/06 10:10:10;;;;;;;13.05;4.43;;;15.70;99.90;;;;;;5084285;28;20198;-59
2022/01/06 10:12:39;;;;;;;13.95;4.50;;;14.90;99.90;;;;;;5068651;28;20202;-59
2022/01/06 10:15:22;;;;;;;15.53;5.07;;;13.50;99.90;;;;;;5067043;28;20214;-59
2022/01/06 10:17:49;;;;;;;14.43;5.10;;;13.00;99.90;;;;;;5081911;28;20305;-58
2022/01/06 10:20:27;;;;;;;13.03;4.13;;;13.50;99.90;;;;;;5067464;28;20244;-58
2022/01/06 10:22:57;;;;;;;15.57;4.63;;;12.00;99.90;;;;;;5084719;28;20194;-58
2022/01/06 10:25:28;;;;;;;17.27;4.87;;;12.80;99.90;;;;;;5086200;28;20198;-58
2022/01/06 10:28:17;;;;;;;15.73;5.10;;;15.30;99.90;;;;;;5082250;28;20673;-58
2022/01/06 10:30:48;;;;;;;11.43;4.10;;;15.70;99.90;;;;;;5077586;28;20840;-60
2022/01/06 10:33:17;;;;;;;12.35;4.43;;;16.30;99.90;;;;;;5081400;28;20320;-58
2022/01/06 10:35:45;;;;;;;13.50;4.68;;;17.90;99.90;;;;;;5080553;28;20206;-59
2022/01/06 10:38:12;;;;;;;13.50;5.07;;;18.30;99.90;;;;;;5081883;28;20194;-59
2022/01/06 10:40:39;;;;;;;15.90;4.75;;;18.20;99.90;;;;;;5081058;28;20270;-59
2022/01/06 10:43:34;;;;;;;13.15;4.50;;;18.20;99.90;;;;;;5087317;28;20312;-59
2022/01/06 10:46:03;;;;;;;13.07;4.68;;;18.90;99.90;;;;;;5087610;28;20206;-59
2022/01/06 10:48:30;;;;;;;16.85;4.90;;;18.50;99.90;;;;;;5087289;28;20289;-59
2022/01/06 10:50:59;;;;;;;12.52;4.85;;;17.10;99.90;;;;;;5072600;28;20201;-59
2022/01/06 10:53:26;;;;;;;14.80;4.90;;;16.90;99.90;;;;;;5065919;28;20267;-59
2022/01/06 10:55:53;;;;;;;13.38;4.00;;;17.00;99.90;;;;;;5070771;28;20210;-59
2022/01/06 10:58:25;;;;;;;14.77;4.80;;;16.60;99.90;;;;;;5088952;28;20199;-59
2022/01/06 11:01:02;;;;;;;15.23;4.88;;;17.00;99.90;;;;;;5090415;28;20186;-59
2022/01/06 11:03:33;;;;;;;16.17;5.13;;;16.10;99.90;;;;;;5087190;28;20269;-58
2022/01/06 11:06:03;;;;;;;14.40;4.15;;;16.90;99.90;;;;;;5090478;28;20218;-59
2022/01/06 11:08:32;;;;;;;17.77;5.60;;;18.20;99.90;;;;;;5084237;28;20201;-59
2022/01/06 11:13:46;;;;;;;15.30;5.70;;;17.70;99.90;;;;;;5089009;28;20220;-59
2022/01/06 11:16:16;;;;;;;16.02;4.65;;;17.60;99.90;;;;;;5065575;28;20206;-59
2022/01/06 11:18:48;;;;;;;13.85;4.35;;;17.70;99.90;;;;;;5087917;28;21003;-59
2022/01/06 11:21:39;;;;;;;14.40;4.88;;;18.00;99.90;;;;;;5072901;28;20243;-59
2022/01/06 11:24:13;;;;;;;16.75;5.05;;;16.70;99.90;;;;;;5090547;28;20182;-58
2022/01/06 11:26:42;;;;;;;15.40;5.32;;;16.80;99.90;;;;;;5087640;28;20622;-58
2022/01/06 11:29:11;;;;;;;17.92;5.55;;;16.80;99.90;;;;;;5061535;28;20274;-58
2022/01/06 11:31:42;;;;;;;17.80;5.28;;;15.70;99.90;;;;;;5088086;28;20194;-58
2022/01/06 11:34:15;;;;;;;16.15;5.05;;;16.20;99.90;;;;;;5090260;28;20226;-60
2022/01/06 11:36:43;;;;;;;14.00;5.07;;;16.80;99.90;;;;;;5089735;28;20317;-60
2022/01/06 11:39:24;;;;;;;13.38;5.05;;;17.10;99.90;;;;;;5084164;28;20184;-60
2022/01/06 11:41:53;;;;;;;13.05;5.68;;;17.70;99.90;;;;;;5083593;28;20218;-60
2022/01/06 11:44:25;;;;;;;14.20;5.35;;;17.70;99.90;;;;;;5060186;28;20199;-60
2022/01/06 11:46:56;;;;;;;13.30;5.45;;;17.10;99.90;;;;;;5067196;28;20641;-59
2022/01/06 11:49:51;;;;;;;11.85;5.43;;;17.50;99.90;;;;;;5082392;28;20213;-59
2022/01/06 11:52:18;;;;;;;10.82;4.80;;;16.90;99.90;;;;;;5080229;28;20217;-59
2022/01/06 11:54:54;;;;;;;13.65;5.50;;;16.90;99.90;;;;;;5080120;28;20244;-59
2022/01/06 11:57:31;;;;;;;17.20;5.35;;;17.00;99.90;;;;;;5063971;28;20198;-60
2022/01/06 12:00:11;;;;;;;12.15;5.05;;;16.90;99.90;;;;;;5083970;28;20198;-59
2022/01/06 12:02:38;;;;;;;19.13;5.00;;;16.30;99.90;;;;;;5082474;28;20196;-59
2022/01/06 12:05:09;;;;;;;11.90;4.47;;;14.30;99.90;;;;;;5080624;28;20273;-59
2022/01/06 12:07:47;;;;;;;15.77;4.60;;;13.60;99.90;;;;;;5082466;28;20194;-59
2022/01/06 12:10:14;;;;;;;12.30;4.03;;;13.40;99.90;;;;;;5082289;28;20240;-59
2022/01/06 12:12:41;;;;;;;20.75;4.68;;;12.80;99.90;;;;;;5080853;28;20700;-59
2022/01/06 12:15:17;;;;;;;14.73;4.05;;;12.90;99.90;;;;;;5079818;28;20283;-59
2022/01/06 12:17:47;;;;;;;11.45;3.90;;;12.70;99.90;;;;;;5081182;28;20195;-59
2022/01/06 12:20:20;;;;;;;14.43;4.63;;;12.90;99.90;;;;;;5081400;28;20187;-59
2022/01/06 12:22:47;;;;;;;18.53;4.30;;;13.10;99.90;;;;;;5080447;28;20531;-59
2022/01/06 12:25:14;;;;;;;16.47;3.80;;;12.40;99.90;;;;;;5082113;28;20236;-59
2022/01/06 12:27:50;;;;;;;14.53;4.00;;;12.60;99.90;;;;;;5079481;28;20210;-60
2022/01/06 12:30:18;;;;;;;16.70;4.70;;;13.50;99.90;;;;;;5080981;28;20186;-59
2022/01/06 12:33:03;;;;;;;16.13;3.87;;;12.80;99.90;;;;;;5066580;28;20615;-60
2022/01/06 12:35:49;;;;;;;11.67;4.33;;;12.40;99.90;;;;;;5075387;28;20615;-59
2022/01/06 12:38:25;;;;;;;13.23;4.40;;;11.80;99.90;;;;;;5077919;28;20183;-59
2022/01/06 12:40:53;;;;;;;17.90;4.77;;;11.80;99.90;;;;;;5084443;28;20721;-59
2022/01/06 12:43:37;;;;;;;13.90;4.60;;;11.40;99.90;;;;;;5081578;28;20189;-60
2022/01/06 12:46:14;;;;;;;13.73;4.60;;;11.90;99.90;;;;;;5084183;28;20186;-60
2022/01/06 12:48:53;;;;;;;21.47;5.00;;;12.20;99.90;;;;;;5080367;28;20205;-59
2022/01/06 12:51:22;;;;;;;19.43;5.17;;;12.30;99.90;;;;;;5079820;28;20255;-59
2022/01/06 12:54:01;;;;;;;15.17;4.40;;;11.80;99.90;;;;;;5064330;28;20205;-59
2022/01/06 12:56:55;;;;;;;17.80;5.17;;;11.40;99.90;;;;;;5061633;28;20790;-59
2022/01/06 12:59:29;;;;;;;20.93;5.37;;;11.20;99.90;;;;;;5054964;28;20205;-59
2022/01/06 13:02:10;;;;;;;15.77;5.10;;;10.80;99.90;;;;;;5081051;28;20190;-59
2022/01/06 13:04:46;;;;;;;25.23;5.67;;;10.80;99.90;;;;;;5082261;28;20187;-59
2022/01/06 13:07:16;;;;;;;18.87;5.17;;;10.80;99.90;;;;;;5078037;28;20673;-59
2022/01/06 13:09:44;;;;;;;22.67;6.10;;;10.30;99.90;;;;;;5077969;28;20236;-58
2022/01/06 13:12:22;;;;;;;16.50;5.63;;;9.90;1.00;;;;;;5078846;28;20729;-59